High Priority — WDI7956 — position and weather

sailwx.info

Track history (hours):
 
Tides and Currents Weather Stations Pressure Air Temp Water Temp Dewpoint Dewpoint Depression Visibility Wind Speed Wind Dir Waves Ship Positions

High Priority

Owner: Pryor, Paul E, Fallbrook, CA. More information available from US FCC via Universal Licensing System and Coast Guard Vessel Documentation Center.

Last reported at 2018-Jul-21 00:54 UTC. Time now 2018-Jul-21 07:55 UTC.
Position N 33°26' W 118°30'.

Length 25 m.

Type: Pleasure craft. MMSI: 367733880.

Date/timePositionNaut miles runAvg speedWind from/ knotsBaromVisibWave heightAir tempDewpointWater temp
2018-Jul-21 00:54N 33°26' W 118°30'0 0.0
2018-Jul-21 00:28N 33°26' W 118°30'0 0.0
2018-Jul-20 23:58N 33°26' W 118°30'0 0.0
2018-Jul-20 22:11N 33°26' W 118°30'2 0.4
2018-Jul-20 18:35N 33°24' W 118°31'1 9.5
2018-Jul-20 18:27N 33°25' W 118°33'4 6.9
2018-Jul-20 17:48N 33°29' W 118°36'3 9.6
2018-Jul-20 17:30N 33°29' W 118°32'3 5.6
2018-Jul-20 17:00N 33°27' W 118°30'4 8.7
2018-Jul-20 16:30N 33°30' W 118°26'4 9.0
2018-Jul-20 16:00N 33°33' W 118°22'4 9.0
2018-Jul-20 15:30N 33°35' W 118°18'4 8.9
2018-Jul-20 15:00N 33°38' W 118°13'4 8.5
2018-Jul-20 14:30N 33°41' W 118°09'4 8.5
2018-Jul-20 14:00N 33°44' W 118°06'1 2.8
2018-Jul-20 13:30N 33°43' W 118°04'0 0.0
2018-Jul-20 12:58N 33°43' W 118°04'0 0.0
2018-Jul-20 12:30N 33°43' W 118°04'0 0.0
2018-Jul-20 12:00N 33°43' W 118°04'0 0.0
2018-Jul-20 11:30N 33°43' W 118°04'0 0.0
2018-Jul-20 11:00N 33°43' W 118°04'0 0.0
2018-Jul-20 10:30N 33°43' W 118°04'0 0.0
2018-Jul-20 10:00N 33°43' W 118°04'0 0.0
2018-Jul-20 09:30N 33°43' W 118°04'0 0.0
2018-Jul-20 09:00N 33°43' W 118°04'0 0.0
2018-Jul-20 08:30N 33°43' W 118°04'0 0.0
2018-Jul-20 08:00N 33°43' W 118°04'0 0.0
2018-Jul-20 07:30N 33°43' W 118°04'0 0.0
2018-Jul-20 07:00N 33°43' W 118°04'0 0.0
2018-Jul-20 06:30N 33°43' W 118°04'0 0.0
2018-Jul-20 06:00N 33°43' W 118°04'0 0.0
2018-Jul-20 05:30N 33°43' W 118°04'0 0.0
2018-Jul-20 05:00N 33°43' W 118°04'0 0.0
2018-Jul-20 04:30N 33°43' W 118°04'0 0.0
2018-Jul-20 04:00N 33°43' W 118°04'0 0.0
2018-Jul-20 03:30N 33°43' W 118°04'0 0.0
2018-Jul-20 03:00N 33°43' W 118°04'0 0.0
2018-Jul-20 02:30N 33°43' W 118°04'0 0.0
2018-Jul-20 02:00N 33°43' W 118°04'0 0.0
2018-Jul-20 01:30N 33°43' W 118°04'0 0.0
2018-Jul-20 01:00N 33°43' W 118°04'0 0.0
2018-Jul-20 00:29N 33°43' W 118°04'0 0.0
2018-Jul-20 00:00N 33°43' W 118°04'0 0.0
2018-Jul-19 23:30N 33°43' W 118°04'0 0.0
2018-Jul-19 23:00N 33°43' W 118°04'0 0.0
2018-Jul-19 22:30N 33°43' W 118°04'0 0.0
2018-Jul-19 22:00N 33°43' W 118°04'0 0.0
2018-Jul-19 21:30N 33°43' W 118°04'0 0.0
2018-Jul-19 21:00N 33°43' W 118°04'0 0.0
2018-Jul-19 20:30N 33°43' W 118°04'0 0.0
2018-Jul-19 20:00N 33°43' W 118°04'0 0.0
2018-Jul-19 19:30N 33°43' W 118°04'0 0.0
2018-Jul-19 19:00N 33°43' W 118°04'0 0.0
2018-Jul-19 18:29N 33°43' W 118°04'0 0.0
2018-Jul-19 18:00N 33°43' W 118°04'0 0.0
2018-Jul-19 17:30N 33°43' W 118°04'0 0.0
2018-Jul-19 17:00N 33°43' W 118°04'0 0.0
2018-Jul-19 16:30N 33°43' W 118°04'0 0.0
2018-Jul-19 16:00N 33°43' W 118°04'0 0.0
2018-Jul-19 15:30N 33°43' W 118°04'0 0.0
2018-Jul-19 15:00N 33°43' W 118°04'0 0.0
2018-Jul-19 14:00N 33°43' W 118°04'0 0.0
2018-Jul-19 13:30N 33°43' W 118°04'0 0.0
2018-Jul-19 13:01N 33°43' W 118°04'0 0.0
2018-Jul-19 12:29N 33°43' W 118°04'0 0.0
2018-Jul-19 12:00N 33°43' W 118°04'0 0.0
2018-Jul-19 11:30N 33°43' W 118°04'0 0.0
2018-Jul-19 10:58N 33°43' W 118°04'0 0.0
2018-Jul-19 10:30N 33°43' W 118°04'0 0.0
2018-Jul-19 10:00N 33°43' W 118°04'0 0.0
2018-Jul-19 09:30N 33°43' W 118°04'0 0.0
2018-Jul-19 09:00N 33°43' W 118°04'0 0.0
2018-Jul-19 08:30N 33°43' W 118°04'0 0.0
2018-Jul-19 08:00N 33°43' W 118°04'0 0.0
2018-Jul-19 07:30N 33°43' W 118°04'0 0.0
2018-Jul-19 07:00N 33°43' W 118°04'0 0.0
2018-Jul-19 06:30N 33°43' W 118°04'0 0.0
2018-Jul-19 06:00N 33°43' W 118°04'0 0.0
2018-Jul-19 05:29N 33°43' W 118°04'0 0.0
2018-Jul-19 05:00N 33°43' W 118°04'0 0.0
2018-Jul-19 04:30N 33°43' W 118°04'0 0.0
2018-Jul-19 04:00N 33°43' W 118°04'0 0.0
2018-Jul-19 03:29N 33°43' W 118°04'0 0.0
2018-Jul-19 03:00N 33°43' W 118°04'0 0.0
2018-Jul-19 02:30N 33°43' W 118°04'0 0.0
2018-Jul-19 02:00N 33°43' W 118°04'0 0.0
2018-Jul-19 01:30N 33°43' W 118°04'0 0.0
2018-Jul-19 01:00N 33°43' W 118°04'0 0.0
2018-Jul-19 00:30N 33°43' W 118°04'0 0.0
2018-Jul-19 00:00N 33°43' W 118°04'0 0.0
2018-Jul-18 23:30N 33°43' W 118°04'0 0.0
2018-Jul-18 23:00N 33°43' W 118°04'0 0.0
2018-Jul-18 22:30N 33°43' W 118°04'0 0.0
2018-Jul-18 22:00N 33°43' W 118°04'0 0.0
2018-Jul-18 21:30N 33°43' W 118°04'0 0.0
2018-Jul-18 21:00N 33°43' W 118°04'0 0.0
2018-Jul-18 20:30N 33°43' W 118°04'0 0.0
2018-Jul-18 20:00N 33°43' W 118°04'0 0.0
2018-Jul-18 19:30N 33°43' W 118°04'0 0.0
2018-Jul-18 19:00N 33°43' W 118°04'0 0.0
2018-Jul-18 18:30N 33°43' W 118°04'0 0.0
2018-Jul-18 18:00N 33°43' W 118°04'0 0.0
2018-Jul-18 17:30N 33°43' W 118°04'0 0.0
2018-Jul-18 17:00N 33°43' W 118°04'0 0.0
2018-Jul-18 16:30N 33°43' W 118°04'0 0.0
2018-Jul-18 16:00N 33°43' W 118°04'0 0.0
2018-Jul-18 15:30N 33°43' W 118°04'0 0.0
2018-Jul-18 14:59N 33°43' W 118°04'0 0.0
2018-Jul-18 14:30N 33°43' W 118°04'0 0.0
2018-Jul-18 13:30N 33°43' W 118°04'0 0.0
2018-Jul-18 13:00N 33°43' W 118°04'0 0.0
2018-Jul-18 12:30N 33°43' W 118°04'0 0.0
2018-Jul-18 12:00N 33°43' W 118°04'0 0.0
2018-Jul-18 11:30N 33°43' W 118°04'0 0.0
2018-Jul-18 10:30N 33°43' W 118°04'0 0.0
2018-Jul-18 10:00N 33°43' W 118°04'0 0.0
2018-Jul-18 09:30N 33°43' W 118°04'0 0.0
2018-Jul-18 09:00N 33°43' W 118°04'0 0.0
2018-Jul-18 08:30N 33°43' W 118°04'0 0.0
2018-Jul-18 08:00N 33°43' W 118°04'0 0.0
2018-Jul-18 07:30N 33°43' W 118°04'0 0.0
2018-Jul-18 07:00N 33°43' W 118°04'0 0.0
2018-Jul-18 06:30N 33°43' W 118°04'0 0.0
2018-Jul-18 06:00N 33°43' W 118°04'0 0.0
2018-Jul-18 05:30N 33°43' W 118°04'0 0.0
2018-Jul-18 05:00N 33°43' W 118°04'0 0.0
2018-Jul-18 04:30N 33°43' W 118°04'0 0.0
2018-Jul-18 04:00N 33°43' W 118°04'0 0.0
2018-Jul-18 03:30N 33°43' W 118°04'0 0.0
2018-Jul-18 03:00N 33°43' W 118°04'0 0.0
2018-Jul-18 02:30N 33°43' W 118°04'0 0.0
2018-Jul-18 02:00N 33°43' W 118°04'0 0.0
2018-Jul-18 01:30N 33°43' W 118°04'0 0.0
2018-Jul-18 01:00N 33°43' W 118°04'0 0.0
2018-Jul-18 00:30N 33°43' W 118°04'0 0.0
2018-Jul-18 00:00N 33°43' W 118°04'0 0.0
2018-Jul-17 23:30N 33°43' W 118°04'0 0.0
2018-Jul-17 23:00N 33°43' W 118°04'0 0.0
2018-Jul-17 22:30N 33°43' W 118°04'0 0.0
2018-Jul-17 22:00N 33°43' W 118°04'0 0.0
2018-Jul-17 21:30N 33°43' W 118°04'0 0.0
2018-Jul-17 21:00N 33°43' W 118°04'0 0.0
2018-Jul-17 20:29N 33°43' W 118°04'0 0.0
2018-Jul-17 20:00N 33°43' W 118°04'0 0.0
2018-Jul-17 19:30N 33°43' W 118°04'0 0.0
2018-Jul-17 19:00N 33°43' W 118°04'0 0.0
2018-Jul-17 18:30N 33°43' W 118°04'0 0.0
2018-Jul-17 18:00N 33°43' W 118°04'0 0.0
2018-Jul-17 17:30N 33°43' W 118°04'0 0.0
2018-Jul-17 17:00N 33°43' W 118°04'0 0.0
2018-Jul-17 16:30N 33°43' W 118°04'0 0.0
2018-Jul-17 16:00N 33°43' W 118°04'0 0.0
2018-Jul-17 15:29N 33°43' W 118°04'0 0.0
2018-Jul-17 15:00N 33°43' W 118°04'0 0.0
2018-Jul-17 14:30N 33°43' W 118°04'0 0.0
2018-Jul-17 14:00N 33°43' W 118°04'0 0.0
2018-Jul-17 13:30N 33°43' W 118°04'0 0.0
2018-Jul-17 13:00N 33°43' W 118°04'0 0.0
2018-Jul-17 12:30N 33°43' W 118°04'0 0.0
2018-Jul-17 12:00N 33°43' W 118°04'0 0.0
2018-Jul-17 11:30N 33°43' W 118°04'0 0.0
2018-Jul-17 11:00N 33°43' W 118°04'0 0.0
2018-Jul-17 10:29N 33°43' W 118°04'0 0.0
2018-Jul-17 10:00N 33°43' W 118°04'0 0.0
2018-Jul-17 09:30N 33°43' W 118°04'0 0.0
2018-Jul-17 08:59N 33°43' W 118°04'0 0.0
2018-Jul-17 08:30N 33°43' W 118°04'0 0.0
2018-Jul-17 08:00N 33°43' W 118°04'0 0.0
2018-Jul-17 07:30N 33°43' W 118°04'0 0.0
2018-Jul-17 07:00N 33°43' W 118°04'0 0.0
2018-Jul-17 06:30N 33°43' W 118°04'0 0.0
2018-Jul-17 06:00N 33°43' W 118°04'0 0.0
2018-Jul-17 05:30N 33°43' W 118°04'0 0.0
2018-Jul-17 04:59N 33°43' W 118°04'0 0.0
2018-Jul-17 04:30N 33°43' W 118°04'0 0.0
2018-Jul-17 04:00N 33°43' W 118°04'0 0.0
2018-Jul-17 03:30N 33°43' W 118°04'0 0.0
2018-Jul-17 03:00N 33°43' W 118°04'0 0.0
2018-Jul-17 02:30N 33°43' W 118°04'0 0.0
2018-Jul-17 02:00N 33°43' W 118°04'0 0.0
2018-Jul-17 01:30N 33°43' W 118°04'0 0.0
2018-Jul-17 00:58N 33°43' W 118°04'0 0.0
2018-Jul-17 00:30N 33°43' W 118°04'0 0.0
2018-Jul-16 23:30N 33°43' W 118°04'0 0.0
2018-Jul-16 23:00N 33°43' W 118°04'0 0.0
2018-Jul-16 22:30N 33°43' W 118°04'0 0.0
2018-Jul-16 21:56N 33°43' W 118°04'0 0.0
2018-Jul-16 21:30N 33°43' W 118°04'0 0.0
2018-Jul-16 21:00N 33°43' W 118°04'0 0.0
2018-Jul-16 20:30N 33°43' W 118°04'0 0.0
2018-Jul-16 20:00N 33°43' W 118°04'0 0.0
2018-Jul-16 19:30N 33°43' W 118°04'0 0.0
2018-Jul-16 19:00N 33°43' W 118°04'0 0.0
2018-Jul-16 18:30N 33°43' W 118°04'0 0.0
2018-Jul-16 18:00N 33°43' W 118°04'0 0.0
2018-Jul-16 17:30N 33°43' W 118°04'0 0.0
2018-Jul-16 17:00N 33°43' W 118°04'0 0.0
2018-Jul-16 16:30N 33°43' W 118°04'0 0.0
2018-Jul-16 16:00N 33°43' W 118°04'0 0.0
2018-Jul-16 15:29N 33°43' W 118°04'0 0.0
2018-Jul-16 15:00N 33°43' W 118°04'0 0.0
2018-Jul-16 14:30N 33°43' W 118°04'0 0.0
2018-Jul-16 14:00N 33°43' W 118°04'0 0.0
2018-Jul-16 13:30N 33°43' W 118°04'0 0.0
2018-Jul-16 12:59N 33°43' W 118°04'0 0.0
2018-Jul-16 12:30N 33°43' W 118°04'0 0.0
2018-Jul-16 12:00N 33°43' W 118°04'0 0.0
2018-Jul-16 11:30N 33°43' W 118°04'0 0.0
2018-Jul-16 11:00N 33°43' W 118°04'0 0.0
2018-Jul-16 10:31N 33°43' W 118°04'0 0.0
2018-Jul-16 10:00N 33°43' W 118°04'0 0.0
2018-Jul-16 09:30N 33°43' W 118°04'0 0.0
2018-Jul-16 09:00N 33°43' W 118°04'0 0.0
2018-Jul-16 08:30N 33°43' W 118°04'0 0.0
2018-Jul-16 08:00N 33°43' W 118°04'0 0.0
2018-Jul-16 07:30N 33°43' W 118°04'0 0.0
2018-Jul-16 07:00N 33°43' W 118°04'0 0.0
2018-Jul-16 06:30N 33°43' W 118°04'0 0.0
2018-Jul-16 06:00N 33°43' W 118°04'0 0.0
2018-Jul-16 05:30N 33°43' W 118°04'0 0.0
2018-Jul-16 05:00N 33°43' W 118°04'0 0.0
2018-Jul-16 04:30N 33°43' W 118°04'0 0.0
2018-Jul-16 04:00N 33°43' W 118°04'0 0.0
2018-Jul-16 03:30N 33°43' W 118°04'0 0.0
2018-Jul-16 03:00N 33°43' W 118°04'0 0.0
2018-Jul-16 02:30N 33°43' W 118°04'0 0.0
2018-Jul-16 02:00N 33°43' W 118°04'0 0.0
2018-Jul-16 01:30N 33°43' W 118°04'0 0.0
2018-Jul-16 00:59N 33°43' W 118°04'0 0.0
2018-Jul-16 00:30N 33°43' W 118°04'0 0.0
2018-Jul-16 00:00N 33°43' W 118°04'0 0.0
2018-Jul-15 23:30N 33°43' W 118°04'0 0.0
2018-Jul-15 23:00N 33°43' W 118°04'0 0.0
2018-Jul-15 22:30N 33°43' W 118°04'0 0.0
2018-Jul-15 22:00N 33°43' W 118°04'0 0.0
2018-Jul-15 21:30N 33°43' W 118°04'0 0.0
2018-Jul-15 21:00N 33°43' W 118°04'0 0.0
2018-Jul-15 20:30N 33°43' W 118°04'0 0.0
2018-Jul-15 20:00N 33°43' W 118°04'0 0.0
2018-Jul-15 19:30N 33°43' W 118°04'0 0.0
2018-Jul-15 19:00N 33°43' W 118°04'0 0.0
2018-Jul-15 18:30N 33°43' W 118°04'0 0.0
2018-Jul-15 17:59N 33°43' W 118°04'0 0.0
2018-Jul-15 17:30N 33°43' W 118°04'0 0.0
2018-Jul-15 17:00N 33°43' W 118°04'0 0.0
2018-Jul-15 16:29N 33°43' W 118°04'0 0.0
2018-Jul-15 16:00N 33°43' W 118°04'0 0.0
2018-Jul-15 15:27N 33°43' W 118°04'0 0.0
2018-Jul-15 15:00N 33°43' W 118°04'0 0.0
2018-Jul-15 14:30N 33°43' W 118°04'0 0.0
2018-Jul-15 14:00N 33°43' W 118°04'0 0.0
2018-Jul-15 13:30N 33°43' W 118°04'0 0.0
2018-Jul-15 13:00N 33°43' W 118°04'0 0.0
2018-Jul-15 12:29N 33°43' W 118°04'0 0.0
2018-Jul-15 12:00N 33°43' W 118°04'0 0.0
2018-Jul-15 11:30N 33°43' W 118°04'0 0.0
2018-Jul-15 11:00N 33°43' W 118°04'0 0.0
2018-Jul-15 10:30N 33°43' W 118°04'0 0.0
2018-Jul-15 10:00N 33°43' W 118°04'0 0.0
2018-Jul-15 09:30N 33°43' W 118°04'0 0.0
2018-Jul-15 09:00N 33°43' W 118°04'0 0.0
2018-Jul-15 08:30N 33°43' W 118°04'0 0.0
2018-Jul-15 08:00N 33°43' W 118°04'0 0.0
2018-Jul-15 07:30N 33°43' W 118°04'0 0.0
2018-Jul-15 07:00N 33°43' W 118°04'0 0.0
2018-Jul-15 06:30N 33°43' W 118°04'0 0.0
2018-Jul-15 06:00N 33°43' W 118°04'0 0.0
2018-Jul-15 05:30N 33°43' W 118°04'0 0.0
2018-Jul-15 05:00N 33°43' W 118°04'0 0.0
2018-Jul-15 04:30N 33°43' W 118°04'0 0.0
2018-Jul-15 04:00N 33°43' W 118°04'0 0.0
2018-Jul-15 03:30N 33°43' W 118°04'0 0.0
2018-Jul-15 03:00N 33°43' W 118°04'0 0.0
2018-Jul-15 02:30N 33°43' W 118°04'0 0.0
2018-Jul-15 02:00N 33°43' W 118°04'0 0.0
2018-Jul-15 01:30N 33°43' W 118°04'0 0.0
2018-Jul-15 01:00N 33°43' W 118°04'0 0.0
2018-Jul-15 00:30N 33°43' W 118°04'0 0.0
2018-Jul-15 00:00N 33°43' W 118°04'0 0.0
2018-Jul-14 23:30N 33°43' W 118°04'0 0.0
2018-Jul-14 23:00N 33°43' W 118°04'0 0.0
2018-Jul-14 22:30N 33°43' W 118°04'0 0.0
2018-Jul-14 22:00N 33°43' W 118°04'0 0.0
2018-Jul-14 21:30N 33°43' W 118°04'0 0.0
2018-Jul-14 21:00N 33°43' W 118°04'0 0.0
2018-Jul-14 20:30N 33°43' W 118°04'0 0.0
2018-Jul-14 20:00N 33°43' W 118°04'0 0.0
2018-Jul-14 19:30N 33°43' W 118°04'0 0.0
2018-Jul-14 19:00N 33°43' W 118°04'0 0.0
2018-Jul-14 18:30N 33°43' W 118°04'2 3.6
2018-Jul-14 18:00N 33°43' W 118°06'5 9.3
2018-Jul-14 17:30N 33°39' W 118°09'5 9.5
2018-Jul-14 17:00N 33°35' W 118°11'5 9.6
2018-Jul-14 16:30N 33°30' W 118°14'5 9.4
2018-Jul-14 16:00N 33°26' W 118°16'5 9.2
2018-Jul-14 15:30N 33°22' W 118°19'1 2.6
2018-Jul-14 15:00N 33°21' W 118°20'0 0.0
2018-Jul-14 13:59N 33°21' W 118°20'0 0.0
2018-Jul-14 13:30N 33°21' W 118°20'0 0.0
2018-Jul-14 13:00N 33°21' W 118°20'0 0.0
2018-Jul-14 12:30N 33°21' W 118°20'0 0.0
2018-Jul-14 12:00N 33°21' W 118°20'0 0.0
2018-Jul-14 11:25N 33°21' W 118°20'0 0.0
2018-Jul-14 10:59N 33°21' W 118°20'0 0.0
2018-Jul-14 10:28N 33°21' W 118°20'0 0.0
2018-Jul-14 10:00N 33°21' W 118°20'0 0.0
2018-Jul-14 09:30N 33°21' W 118°20'0 0.0
2018-Jul-14 08:54N 33°21' W 118°20'0 0.0
2018-Jul-14 08:30N 33°21' W 118°20'0 0.0
2018-Jul-14 07:50N 33°21' W 118°20'0 0.0
2018-Jul-14 07:26N 33°21' W 118°20'0 0.0
2018-Jul-14 07:00N 33°21' W 118°20'0 0.0
2018-Jul-14 06:30N 33°21' W 118°20'0 0.0
2018-Jul-14 06:00N 33°21' W 118°20'0 0.0
2018-Jul-14 05:28N 33°21' W 118°20'0 0.0
2018-Jul-14 05:00N 33°21' W 118°20'0 0.0
2018-Jul-14 04:25N 33°21' W 118°20'0 0.0
2018-Jul-14 04:00N 33°21' W 118°20'0 0.0
2018-Jul-14 03:30N 33°21' W 118°20'0 0.0
2018-Jul-14 03:00N 33°21' W 118°20'0 0.0
2018-Jul-14 02:30N 33°21' W 118°20'0 0.0
2018-Jul-14 01:59N 33°21' W 118°20'0 0.0
2018-Jul-14 01:29N 33°21' W 118°20'0 0.0
2018-Jul-14 00:59N 33°21' W 118°20'0 0.0
2018-Jul-14 00:27N 33°21' W 118°20'0 0.0
2018-Jul-14 00:00N 33°21' W 118°20'0 0.0
2018-Jul-13 23:29N 33°21' W 118°20'0 0.0
2018-Jul-13 22:59N 33°21' W 118°20'0 0.0
2018-Jul-13 22:29N 33°21' W 118°20'0 0.0
2018-Jul-13 21:58N 33°21' W 118°20'0 0.0
2018-Jul-13 21:30N 33°21' W 118°20'0 0.0
2018-Jul-13 20:58N 33°21' W 118°20'0 0.0
2018-Jul-13 20:30N 33°21' W 118°20'0 0.0
2018-Jul-13 20:00N 33°21' W 118°20'0 0.0
2018-Jul-13 18:33N 33°21' W 118°20'0 0.0
2018-Jul-13 18:30N 33°21' W 118°20'0 0.0
2018-Jul-13 16:49N 33°21' W 118°20'0 0.0
2018-Jul-13 16:26N 33°21' W 118°20'0 0.0
2018-Jul-13 15:59N 33°21' W 118°20'0 0.0
2018-Jul-13 15:30N 33°21' W 118°20'0 0.0
2018-Jul-13 14:59N 33°21' W 118°20'0 0.0
2018-Jul-13 14:24N 33°21' W 118°20'0 0.0
2018-Jul-13 13:30N 33°21' W 118°20'0 0.0
2018-Jul-13 13:00N 33°21' W 118°20'0 0.0
2018-Jul-13 12:30N 33°21' W 118°20'0 0.0
2018-Jul-13 12:00N 33°21' W 118°20'0 0.0
2018-Jul-13 11:30N 33°21' W 118°20'0 0.0
2018-Jul-13 11:00N 33°21' W 118°20'0 0.0
2018-Jul-13 10:30N 33°21' W 118°20'0 0.0
2018-Jul-13 10:00N 33°21' W 118°20'0 0.0
2018-Jul-13 09:30N 33°21' W 118°20'0 0.0
2018-Jul-13 09:00N 33°21' W 118°20'0 0.0
2018-Jul-13 08:29N 33°21' W 118°20'0 0.0
2018-Jul-13 07:56N 33°21' W 118°20'0 0.0
2018-Jul-13 07:30N 33°21' W 118°20'0 0.0
2018-Jul-13 07:00N 33°21' W 118°20'0 0.0
2018-Jul-13 06:30N 33°21' W 118°20'0 0.0
2018-Jul-13 05:57N 33°21' W 118°20'0 0.0
2018-Jul-13 05:30N 33°21' W 118°20'0 0.0
2018-Jul-13 04:58N 33°21' W 118°20'0 0.0
2018-Jul-13 04:22N 33°21' W 118°20'0 0.0
2018-Jul-13 04:00N 33°21' W 118°20'0 0.0
2018-Jul-13 03:30N 33°21' W 118°20'0 0.0
2018-Jul-13 02:58N 33°21' W 118°20'0 0.0
2018-Jul-13 02:30N 33°21' W 118°20'0 0.0
2018-Jul-13 02:00N 33°21' W 118°20'0 0.0
2018-Jul-13 01:25N 33°21' W 118°20'0 0.0
2018-Jul-13 00:59N 33°21' W 118°20'0 0.0
2018-Jul-13 00:29N 33°21' W 118°20'0 0.0
2018-Jul-13 00:00N 33°21' W 118°20'0 0.0
2018-Jul-12 23:30N 33°21' W 118°20'0 0.0
2018-Jul-12 23:00N 33°21' W 118°20'0 0.0
2018-Jul-12 22:30N 33°21' W 118°20'0 0.0
2018-Jul-12 22:00N 33°21' W 118°20'0 0.0
2018-Jul-12 21:30N 33°21' W 118°20'0 0.0
2018-Jul-12 21:00N 33°21' W 118°20'0 0.0
2018-Jul-12 20:30N 33°21' W 118°20'0 0.0
2018-Jul-12 20:00N 33°21' W 118°20'0 0.1
2018-Jul-12 19:29N 33°21' W 118°19'4 8.9
2018-Jul-12 19:00N 33°25' W 118°17'5 9.4
2018-Jul-12 18:30N 33°29' W 118°15'5 9.0
2018-Jul-12 18:00N 33°33' W 118°12'4 8.8
2018-Jul-12 17:30N 33°37' W 118°10'4 8.9
2018-Jul-12 17:00N 33°41' W 118°08'4 7.3
2018-Jul-12 16:30N 33°44' W 118°05'1 1.8
2018-Jul-12 15:59N 33°43' W 118°04'0 0.0
2018-Jul-12 15:30N 33°43' W 118°04'0 0.0
2018-Jul-12 15:00N 33°43' W 118°04'0 0.0
2018-Jul-12 14:30N 33°43' W 118°04'0 0.0
2018-Jul-12 14:00N 33°43' W 118°04'0 0.0
2018-Jul-12 13:29N 33°43' W 118°04'0 0.0
2018-Jul-12 13:00N 33°43' W 118°04'0 0.0
2018-Jul-12 12:30N 33°43' W 118°04'0 0.0
2018-Jul-12 12:00N 33°43' W 118°04'0 0.0
2018-Jul-12 11:30N 33°43' W 118°04'0 0.0
2018-Jul-12 11:00N 33°43' W 118°04'0 0.0
2018-Jul-12 10:30N 33°43' W 118°04'0 0.0
2018-Jul-12 10:00N 33°43' W 118°04'0 0.0
2018-Jul-12 09:30N 33°43' W 118°04'0 0.0
2018-Jul-12 09:00N 33°43' W 118°04'0 0.0
2018-Jul-12 08:30N 33°43' W 118°04'0 0.0
2018-Jul-12 08:00N 33°43' W 118°04'0 0.0
2018-Jul-12 07:30N 33°43' W 118°04'0 0.0
2018-Jul-12 07:00N 33°43' W 118°04'0 0.0
2018-Jul-12 06:30N 33°43' W 118°04'0 0.0
2018-Jul-12 06:00N 33°43' W 118°04'0 0.0
2018-Jul-12 05:30N 33°43' W 118°04'0 0.0
2018-Jul-12 05:00N 33°43' W 118°04'0 0.0
2018-Jul-12 04:30N 33°43' W 118°04'0 0.0
2018-Jul-12 04:00N 33°43' W 118°04'0 0.0
2018-Jul-12 03:30N 33°43' W 118°04'0 0.0
2018-Jul-12 02:58N 33°43' W 118°04'0 0.0
2018-Jul-12 02:30N 33°43' W 118°04'0 0.0
2018-Jul-12 02:00N 33°43' W 118°04'0 0.0
2018-Jul-12 01:30N 33°43' W 118°04'0 0.0
2018-Jul-12 01:00N 33°43' W 118°04'0 0.0
2018-Jul-12 00:30N 33°43' W 118°04'0 0.0
2018-Jul-12 00:00N 33°43' W 118°04'0 0.0
2018-Jul-11 23:30N 33°43' W 118°04'0 0.0
2018-Jul-11 23:00N 33°43' W 118°04'0 0.0
2018-Jul-11 22:30N 33°43' W 118°04'0 0.0
2018-Jul-11 22:00N 33°43' W 118°04'0 0.0
2018-Jul-11 21:30N 33°43' W 118°04'0 0.0
2018-Jul-11 21:00N 33°43' W 118°04'0 0.0
2018-Jul-11 20:30N 33°43' W 118°04'0 0.0
2018-Jul-11 20:00N 33°43' W 118°04'0 0.0
2018-Jul-11 19:30N 33°43' W 118°04'0 0.0
2018-Jul-11 19:00N 33°43' W 118°04'0 0.0
2018-Jul-11 18:30N 33°43' W 118°04'0 0.0
2018-Jul-11 18:00N 33°43' W 118°04'0 0.0
2018-Jul-11 17:30N 33°43' W 118°04'0 0.0
2018-Jul-11 17:00N 33°43' W 118°04'0 0.0
2018-Jul-11 16:30N 33°43' W 118°04'0 0.0
2018-Jul-11 16:00N 33°43' W 118°04'0 0.0
2018-Jul-11 15:30N 33°43' W 118°04'0 0.0
2018-Jul-11 15:00N 33°43' W 118°04'0 0.0
2018-Jul-11 14:30N 33°43' W 118°04'0 0.0
2018-Jul-11 14:00N 33°43' W 118°04'0 0.0
2018-Jul-11 13:29N 33°43' W 118°04'0 0.0
2018-Jul-11 13:00N 33°43' W 118°04'0 0.0
2018-Jul-11 12:29N 33°43' W 118°04'0 0.0
2018-Jul-11 12:00N 33°43' W 118°04'0 0.0
2018-Jul-11 11:30N 33°43' W 118°04'0 0.0
2018-Jul-11 11:00N 33°43' W 118°04'0 0.0
2018-Jul-11 10:30N 33°43' W 118°04'0 0.0
2018-Jul-11 10:00N 33°43' W 118°04'0 0.0
2018-Jul-11 09:30N 33°43' W 118°04'0 0.0
2018-Jul-11 09:00N 33°43' W 118°04'0 0.0
2018-Jul-11 08:30N 33°43' W 118°04'0 0.0
2018-Jul-11 07:59N 33°43' W 118°04'0 0.0
2018-Jul-11 07:30N 33°43' W 118°04'0 0.0
2018-Jul-11 07:00N 33°43' W 118°04'0 0.0
2018-Jul-11 06:30N 33°43' W 118°04'0 0.0
2018-Jul-11 06:00N 33°43' W 118°04'0 0.0
2018-Jul-11 05:30N 33°43' W 118°04'0 0.0
2018-Jul-11 05:00N 33°43' W 118°04'0 0.0
2018-Jul-11 04:30N 33°43' W 118°04'0 0.0
2018-Jul-11 04:00N 33°43' W 118°04'0 0.0
2018-Jul-11 03:30N 33°43' W 118°04'0 0.0
2018-Jul-11 03:00N 33°43' W 118°04'0 0.0
2018-Jul-11 02:30N 33°43' W 118°04'0 0.0
2018-Jul-11 02:00N 33°43' W 118°04'0 0.0
2018-Jul-11 01:30N 33°43' W 118°04'0 0.0
2018-Jul-11 01:00N 33°43' W 118°04'  
Track history (hours):
 
Tides and Currents Weather Stations Pressure Air Temp Water Temp Dewpoint Dewpoint Depression Visibility Wind Speed Wind Dir Waves Ship Positions

High Priority

Owner: Pryor, Paul E, Fallbrook, CA. More information available from US FCC via Universal Licensing System and Coast Guard Vessel Documentation Center.

Last reported at 2018-Jul-21 00:54 UTC. Time now 2018-Jul-21 07:55 UTC.
Position N 33°26' W 118°30'.

Length 25 m.

Type: Pleasure craft. MMSI: 367733880.

Date/timePositionNaut miles runAvg speedWind from/ knotsBaromVisibWave heightAir tempDewpointWater temp
2018-Jul-21 00:54N 33°26' W 118°30'0 0.0
2018-Jul-21 00:28N 33°26' W 118°30'0 0.0
2018-Jul-20 23:58N 33°26' W 118°30'0 0.0
2018-Jul-20 22:11N 33°26' W 118°30'2 0.4
2018-Jul-20 18:35N 33°24' W 118°31'1 9.5
2018-Jul-20 18:27N 33°25' W 118°33'4 6.9
2018-Jul-20 17:48N 33°29' W 118°36'3 9.6
2018-Jul-20 17:30N 33°29' W 118°32'3 5.6
2018-Jul-20 17:00N 33°27' W 118°30'4 8.7
2018-Jul-20 16:30N 33°30' W 118°26'4 9.0
2018-Jul-20 16:00N 33°33' W 118°22'4 9.0
2018-Jul-20 15:30N 33°35' W 118°18'4 8.9
2018-Jul-20 15:00N 33°38' W 118°13'4 8.5
2018-Jul-20 14:30N 33°41' W 118°09'4 8.5
2018-Jul-20 14:00N 33°44' W 118°06'1 2.8
2018-Jul-20 13:30N 33°43' W 118°04'0 0.0
2018-Jul-20 12:58N 33°43' W 118°04'0 0.0
2018-Jul-20 12:30N 33°43' W 118°04'0 0.0
2018-Jul-20 12:00N 33°43' W 118°04'0 0.0
2018-Jul-20 11:30N 33°43' W 118°04'0 0.0
2018-Jul-20 11:00N 33°43' W 118°04'0 0.0
2018-Jul-20 10:30N 33°43' W 118°04'0 0.0
2018-Jul-20 10:00N 33°43' W 118°04'0 0.0
2018-Jul-20 09:30N 33°43' W 118°04'0 0.0
2018-Jul-20 09:00N 33°43' W 118°04'0 0.0
2018-Jul-20 08:30N 33°43' W 118°04'0 0.0
2018-Jul-20 08:00N 33°43' W 118°04'0 0.0
2018-Jul-20 07:30N 33°43' W 118°04'0 0.0
2018-Jul-20 07:00N 33°43' W 118°04'0 0.0
2018-Jul-20 06:30N 33°43' W 118°04'0 0.0
2018-Jul-20 06:00N 33°43' W 118°04'0 0.0
2018-Jul-20 05:30N 33°43' W 118°04'0 0.0
2018-Jul-20 05:00N 33°43' W 118°04'0 0.0
2018-Jul-20 04:30N 33°43' W 118°04'0 0.0
2018-Jul-20 04:00N 33°43' W 118°04'0 0.0
2018-Jul-20 03:30N 33°43' W 118°04'0 0.0
2018-Jul-20 03:00N 33°43' W 118°04'0 0.0
2018-Jul-20 02:30N 33°43' W 118°04'0 0.0
2018-Jul-20 02:00N 33°43' W 118°04'0 0.0
2018-Jul-20 01:30N 33°43' W 118°04'0 0.0
2018-Jul-20 01:00N 33°43' W 118°04'0 0.0
2018-Jul-20 00:29N 33°43' W 118°04'0 0.0
2018-Jul-20 00:00N 33°43' W 118°04'0 0.0
2018-Jul-19 23:30N 33°43' W 118°04'0 0.0
2018-Jul-19 23:00N 33°43' W 118°04'0 0.0
2018-Jul-19 22:30N 33°43' W 118°04'0 0.0
2018-Jul-19 22:00N 33°43' W 118°04'0 0.0
2018-Jul-19 21:30N 33°43' W 118°04'0 0.0
2018-Jul-19 21:00N 33°43' W 118°04'0 0.0
2018-Jul-19 20:30N 33°43' W 118°04'0 0.0
2018-Jul-19 20:00N 33°43' W 118°04'0 0.0
2018-Jul-19 19:30N 33°43' W 118°04'0 0.0
2018-Jul-19 19:00N 33°43' W 118°04'0 0.0
2018-Jul-19 18:29N 33°43' W 118°04'0 0.0
2018-Jul-19 18:00N 33°43' W 118°04'0 0.0
2018-Jul-19 17:30N 33°43' W 118°04'0 0.0
2018-Jul-19 17:00N 33°43' W 118°04'0 0.0
2018-Jul-19 16:30N 33°43' W 118°04'0 0.0
2018-Jul-19 16:00N 33°43' W 118°04'0 0.0
2018-Jul-19 15:30N 33°43' W 118°04'0 0.0
2018-Jul-19 15:00N 33°43' W 118°04'0 0.0
2018-Jul-19 14:00N 33°43' W 118°04'0 0.0
2018-Jul-19 13:30N 33°43' W 118°04'0 0.0
2018-Jul-19 13:01N 33°43' W 118°04'0 0.0
2018-Jul-19 12:29N 33°43' W 118°04'0 0.0
2018-Jul-19 12:00N 33°43' W 118°04'0 0.0
2018-Jul-19 11:30N 33°43' W 118°04'0 0.0
2018-Jul-19 10:58N 33°43' W 118°04'0 0.0
2018-Jul-19 10:30N 33°43' W 118°04'0 0.0
2018-Jul-19 10:00N 33°43' W 118°04'0 0.0
2018-Jul-19 09:30N 33°43' W 118°04'0 0.0
2018-Jul-19 09:00N 33°43' W 118°04'0 0.0
2018-Jul-19 08:30N 33°43' W 118°04'0 0.0
2018-Jul-19 08:00N 33°43' W 118°04'0 0.0
2018-Jul-19 07:30N 33°43' W 118°04'0 0.0
2018-Jul-19 07:00N 33°43' W 118°04'0 0.0
2018-Jul-19 06:30N 33°43' W 118°04'0 0.0
2018-Jul-19 06:00N 33°43' W 118°04'0 0.0
2018-Jul-19 05:29N 33°43' W 118°04'0 0.0
2018-Jul-19 05:00N 33°43' W 118°04'0 0.0
2018-Jul-19 04:30N 33°43' W 118°04'0 0.0
2018-Jul-19 04:00N 33°43' W 118°04'0 0.0
2018-Jul-19 03:29N 33°43' W 118°04'0 0.0
2018-Jul-19 03:00N 33°43' W 118°04'0 0.0
2018-Jul-19 02:30N 33°43' W 118°04'0 0.0
2018-Jul-19 02:00N 33°43' W 118°04'0 0.0
2018-Jul-19 01:30N 33°43' W 118°04'0 0.0
2018-Jul-19 01:00N 33°43' W 118°04'0 0.0
2018-Jul-19 00:30N 33°43' W 118°04'0 0.0
2018-Jul-19 00:00N 33°43' W 118°04'0 0.0
2018-Jul-18 23:30N 33°43' W 118°04'0 0.0
2018-Jul-18 23:00N 33°43' W 118°04'0 0.0
2018-Jul-18 22:30N 33°43' W 118°04'0 0.0
2018-Jul-18 22:00N 33°43' W 118°04'0 0.0
2018-Jul-18 21:30N 33°43' W 118°04'0 0.0
2018-Jul-18 21:00N 33°43' W 118°04'0 0.0
2018-Jul-18 20:30N 33°43' W 118°04'0 0.0
2018-Jul-18 20:00N 33°43' W 118°04'0 0.0
2018-Jul-18 19:30N 33°43' W 118°04'0 0.0
2018-Jul-18 19:00N 33°43' W 118°04'0 0.0
2018-Jul-18 18:30N 33°43' W 118°04'0 0.0
2018-Jul-18 18:00N 33°43' W 118°04'0 0.0
2018-Jul-18 17:30N 33°43' W 118°04'0 0.0
2018-Jul-18 17:00N 33°43' W 118°04'0 0.0
2018-Jul-18 16:30N 33°43' W 118°04'0 0.0
2018-Jul-18 16:00N 33°43' W 118°04'0 0.0
2018-Jul-18 15:30N 33°43' W 118°04'0 0.0
2018-Jul-18 14:59N 33°43' W 118°04'0 0.0
2018-Jul-18 14:30N 33°43' W 118°04'0 0.0
2018-Jul-18 13:30N 33°43' W 118°04'0 0.0
2018-Jul-18 13:00N 33°43' W 118°04'0 0.0
2018-Jul-18 12:30N 33°43' W 118°04'0 0.0
2018-Jul-18 12:00N 33°43' W 118°04'0 0.0
2018-Jul-18 11:30N 33°43' W 118°04'0 0.0
2018-Jul-18 10:30N 33°43' W 118°04'0 0.0
2018-Jul-18 10:00N 33°43' W 118°04'0 0.0
2018-Jul-18 09:30N 33°43' W 118°04'0 0.0
2018-Jul-18 09:00N 33°43' W 118°04'0 0.0
2018-Jul-18 08:30N 33°43' W 118°04'0 0.0
2018-Jul-18 08:00N 33°43' W 118°04'0 0.0
2018-Jul-18 07:30N 33°43' W 118°04'0 0.0
2018-Jul-18 07:00N 33°43' W 118°04'0 0.0
2018-Jul-18 06:30N 33°43' W 118°04'0 0.0
2018-Jul-18 06:00N 33°43' W 118°04'0 0.0
2018-Jul-18 05:30N 33°43' W 118°04'0 0.0
2018-Jul-18 05:00N 33°43' W 118°04'0 0.0
2018-Jul-18 04:30N 33°43' W 118°04'0 0.0
2018-Jul-18 04:00N 33°43' W 118°04'0 0.0
2018-Jul-18 03:30N 33°43' W 118°04'0 0.0
2018-Jul-18 03:00N 33°43' W 118°04'0 0.0
2018-Jul-18 02:30N 33°43' W 118°04'0 0.0
2018-Jul-18 02:00N 33°43' W 118°04'0 0.0
2018-Jul-18 01:30N 33°43' W 118°04'0 0.0
2018-Jul-18 01:00N 33°43' W 118°04'0 0.0
2018-Jul-18 00:30N 33°43' W 118°04'0 0.0
2018-Jul-18 00:00N 33°43' W 118°04'0 0.0
2018-Jul-17 23:30N 33°43' W 118°04'0 0.0
2018-Jul-17 23:00N 33°43' W 118°04'0 0.0
2018-Jul-17 22:30N 33°43' W 118°04'0 0.0
2018-Jul-17 22:00N 33°43' W 118°04'0 0.0
2018-Jul-17 21:30N 33°43' W 118°04'0 0.0
2018-Jul-17 21:00N 33°43' W 118°04'0 0.0
2018-Jul-17 20:29N 33°43' W 118°04'0 0.0
2018-Jul-17 20:00N 33°43' W 118°04'0 0.0
2018-Jul-17 19:30N 33°43' W 118°04'0 0.0
2018-Jul-17 19:00N 33°43' W 118°04'0 0.0
2018-Jul-17 18:30N 33°43' W 118°04'0 0.0
2018-Jul-17 18:00N 33°43' W 118°04'0 0.0
2018-Jul-17 17:30N 33°43' W 118°04'0 0.0
2018-Jul-17 17:00N 33°43' W 118°04'0 0.0
2018-Jul-17 16:30N 33°43' W 118°04'0 0.0
2018-Jul-17 16:00N 33°43' W 118°04'0 0.0
2018-Jul-17 15:29N 33°43' W 118°04'0 0.0
2018-Jul-17 15:00N 33°43' W 118°04'0 0.0
2018-Jul-17 14:30N 33°43' W 118°04'0 0.0
2018-Jul-17 14:00N 33°43' W 118°04'0 0.0
2018-Jul-17 13:30N 33°43' W 118°04'0 0.0
2018-Jul-17 13:00N 33°43' W 118°04'0 0.0
2018-Jul-17 12:30N 33°43' W 118°04'0 0.0
2018-Jul-17 12:00N 33°43' W 118°04'0 0.0
2018-Jul-17 11:30N 33°43' W 118°04'0 0.0
2018-Jul-17 11:00N 33°43' W 118°04'0 0.0
2018-Jul-17 10:29N 33°43' W 118°04'0 0.0
2018-Jul-17 10:00N 33°43' W 118°04'0 0.0
2018-Jul-17 09:30N 33°43' W 118°04'0 0.0
2018-Jul-17 08:59N 33°43' W 118°04'0 0.0
2018-Jul-17 08:30N 33°43' W 118°04'0 0.0
2018-Jul-17 08:00N 33°43' W 118°04'0 0.0
2018-Jul-17 07:30N 33°43' W 118°04'0 0.0
2018-Jul-17 07:00N 33°43' W 118°04'0 0.0
2018-Jul-17 06:30N 33°43' W 118°04'0 0.0
2018-Jul-17 06:00N 33°43' W 118°04'0 0.0
2018-Jul-17 05:30N 33°43' W 118°04'0 0.0
2018-Jul-17 04:59N 33°43' W 118°04'0 0.0
2018-Jul-17 04:30N 33°43' W 118°04'0 0.0
2018-Jul-17 04:00N 33°43' W 118°04'0 0.0
2018-Jul-17 03:30N 33°43' W 118°04'0 0.0
2018-Jul-17 03:00N 33°43' W 118°04'0 0.0
2018-Jul-17 02:30N 33°43' W 118°04'0 0.0
2018-Jul-17 02:00N 33°43' W 118°04'0 0.0
2018-Jul-17 01:30N 33°43' W 118°04'0 0.0
2018-Jul-17 00:58N 33°43' W 118°04'0 0.0
2018-Jul-17 00:30N 33°43' W 118°04'0 0.0
2018-Jul-16 23:30N 33°43' W 118°04'0 0.0
2018-Jul-16 23:00N 33°43' W 118°04'0 0.0
2018-Jul-16 22:30N 33°43' W 118°04'0 0.0
2018-Jul-16 21:56N 33°43' W 118°04'0 0.0
2018-Jul-16 21:30N 33°43' W 118°04'0 0.0
2018-Jul-16 21:00N 33°43' W 118°04'0 0.0
2018-Jul-16 20:30N 33°43' W 118°04'0 0.0
2018-Jul-16 20:00N 33°43' W 118°04'0 0.0
2018-Jul-16 19:30N 33°43' W 118°04'0 0.0
2018-Jul-16 19:00N 33°43' W 118°04'0 0.0
2018-Jul-16 18:30N 33°43' W 118°04'0 0.0
2018-Jul-16 18:00N 33°43' W 118°04'0 0.0
2018-Jul-16 17:30N 33°43' W 118°04'0 0.0
2018-Jul-16 17:00N 33°43' W 118°04'0 0.0
2018-Jul-16 16:30N 33°43' W 118°04'0 0.0
2018-Jul-16 16:00N 33°43' W 118°04'0 0.0
2018-Jul-16 15:29N 33°43' W 118°04'0 0.0
2018-Jul-16 15:00N 33°43' W 118°04'0 0.0
2018-Jul-16 14:30N 33°43' W 118°04'0 0.0
2018-Jul-16 14:00N 33°43' W 118°04'0 0.0
2018-Jul-16 13:30N 33°43' W 118°04'0 0.0
2018-Jul-16 12:59N 33°43' W 118°04'0 0.0
2018-Jul-16 12:30N 33°43' W 118°04'0 0.0
2018-Jul-16 12:00N 33°43' W 118°04'0 0.0
2018-Jul-16 11:30N 33°43' W 118°04'0 0.0
2018-Jul-16 11:00N 33°43' W 118°04'0 0.0
2018-Jul-16 10:31N 33°43' W 118°04'0 0.0
2018-Jul-16 10:00N 33°43' W 118°04'0 0.0
2018-Jul-16 09:30N 33°43' W 118°04'0 0.0
2018-Jul-16 09:00N 33°43' W 118°04'0 0.0
2018-Jul-16 08:30N 33°43' W 118°04'0 0.0
2018-Jul-16 08:00N 33°43' W 118°04'0 0.0
2018-Jul-16 07:30N 33°43' W 118°04'0 0.0
2018-Jul-16 07:00N 33°43' W 118°04'0 0.0
2018-Jul-16 06:30N 33°43' W 118°04'0 0.0
2018-Jul-16 06:00N 33°43' W 118°04'0 0.0
2018-Jul-16 05:30N 33°43' W 118°04'0 0.0
2018-Jul-16 05:00N 33°43' W 118°04'0 0.0
2018-Jul-16 04:30N 33°43' W 118°04'0 0.0
2018-Jul-16 04:00N 33°43' W 118°04'0 0.0
2018-Jul-16 03:30N 33°43' W 118°04'0 0.0
2018-Jul-16 03:00N 33°43' W 118°04'0 0.0
2018-Jul-16 02:30N 33°43' W 118°04'0 0.0
2018-Jul-16 02:00N 33°43' W 118°04'0 0.0
2018-Jul-16 01:30N 33°43' W 118°04'0 0.0
2018-Jul-16 00:59N 33°43' W 118°04'0 0.0
2018-Jul-16 00:30N 33°43' W 118°04'0 0.0
2018-Jul-16 00:00N 33°43' W 118°04'0 0.0
2018-Jul-15 23:30N 33°43' W 118°04'0 0.0
2018-Jul-15 23:00N 33°43' W 118°04'0 0.0
2018-Jul-15 22:30N 33°43' W 118°04'0 0.0
2018-Jul-15 22:00N 33°43' W 118°04'0 0.0
2018-Jul-15 21:30N 33°43' W 118°04'0 0.0
2018-Jul-15 21:00N 33°43' W 118°04'0 0.0
2018-Jul-15 20:30N 33°43' W 118°04'0 0.0
2018-Jul-15 20:00N 33°43' W 118°04'0 0.0
2018-Jul-15 19:30N 33°43' W 118°04'0 0.0
2018-Jul-15 19:00N 33°43' W 118°04'0 0.0
2018-Jul-15 18:30N 33°43' W 118°04'0 0.0
2018-Jul-15 17:59N 33°43' W 118°04'0 0.0
2018-Jul-15 17:30N 33°43' W 118°04'0 0.0
2018-Jul-15 17:00N 33°43' W 118°04'0 0.0
2018-Jul-15 16:29N 33°43' W 118°04'0 0.0
2018-Jul-15 16:00N 33°43' W 118°04'0 0.0
2018-Jul-15 15:27N 33°43' W 118°04'0 0.0
2018-Jul-15 15:00N 33°43' W 118°04'0 0.0
2018-Jul-15 14:30N 33°43' W 118°04'0 0.0
2018-Jul-15 14:00N 33°43' W 118°04'0 0.0
2018-Jul-15 13:30N 33°43' W 118°04'0 0.0
2018-Jul-15 13:00N 33°43' W 118°04'0 0.0
2018-Jul-15 12:29N 33°43' W 118°04'0 0.0
2018-Jul-15 12:00N 33°43' W 118°04'0 0.0
2018-Jul-15 11:30N 33°43' W 118°04'0 0.0
2018-Jul-15 11:00N 33°43' W 118°04'0 0.0
2018-Jul-15 10:30N 33°43' W 118°04'0 0.0
2018-Jul-15 10:00N 33°43' W 118°04'0 0.0
2018-Jul-15 09:30N 33°43' W 118°04'0 0.0
2018-Jul-15 09:00N 33°43' W 118°04'0 0.0
2018-Jul-15 08:30N 33°43' W 118°04'0 0.0
2018-Jul-15 08:00N 33°43' W 118°04'0 0.0
2018-Jul-15 07:30N 33°43' W 118°04'0 0.0
2018-Jul-15 07:00N 33°43' W 118°04'0 0.0
2018-Jul-15 06:30N 33°43' W 118°04'0 0.0
2018-Jul-15 06:00N 33°43' W 118°04'0 0.0
2018-Jul-15 05:30N 33°43' W 118°04'0 0.0
2018-Jul-15 05:00N 33°43' W 118°04'0 0.0
2018-Jul-15 04:30N 33°43' W 118°04'0 0.0
2018-Jul-15 04:00N 33°43' W 118°04'0 0.0
2018-Jul-15 03:30N 33°43' W 118°04'0 0.0
2018-Jul-15 03:00N 33°43' W 118°04'0 0.0
2018-Jul-15 02:30N 33°43' W 118°04'0 0.0
2018-Jul-15 02:00N 33°43' W 118°04'0 0.0
2018-Jul-15 01:30N 33°43' W 118°04'0 0.0
2018-Jul-15 01:00N 33°43' W 118°04'0 0.0
2018-Jul-15 00:30N 33°43' W 118°04'0 0.0
2018-Jul-15 00:00N 33°43' W 118°04'0 0.0
2018-Jul-14 23:30N 33°43' W 118°04'0 0.0
2018-Jul-14 23:00N 33°43' W 118°04'0 0.0
2018-Jul-14 22:30N 33°43' W 118°04'0 0.0
2018-Jul-14 22:00N 33°43' W 118°04'0 0.0
2018-Jul-14 21:30N 33°43' W 118°04'0 0.0
2018-Jul-14 21:00N 33°43' W 118°04'0 0.0
2018-Jul-14 20:30N 33°43' W 118°04'0 0.0
2018-Jul-14 20:00N 33°43' W 118°04'0 0.0
2018-Jul-14 19:30N 33°43' W 118°04'0 0.0
2018-Jul-14 19:00N 33°43' W 118°04'0 0.0
2018-Jul-14 18:30N 33°43' W 118°04'2 3.6
2018-Jul-14 18:00N 33°43' W 118°06'5 9.3
2018-Jul-14 17:30N 33°39' W 118°09'5 9.5
2018-Jul-14 17:00N 33°35' W 118°11'5 9.6
2018-Jul-14 16:30N 33°30' W 118°14'5 9.4
2018-Jul-14 16:00N 33°26' W 118°16'5 9.2
2018-Jul-14 15:30N 33°22' W 118°19'1 2.6
2018-Jul-14 15:00N 33°21' W 118°20'0 0.0
2018-Jul-14 13:59N 33°21' W 118°20'0 0.0
2018-Jul-14 13:30N 33°21' W 118°20'0 0.0
2018-Jul-14 13:00N 33°21' W 118°20'0 0.0
2018-Jul-14 12:30N 33°21' W 118°20'0 0.0
2018-Jul-14 12:00N 33°21' W 118°20'0 0.0
2018-Jul-14 11:25N 33°21' W 118°20'0 0.0
2018-Jul-14 10:59N 33°21' W 118°20'0 0.0
2018-Jul-14 10:28N 33°21' W 118°20'0 0.0
2018-Jul-14 10:00N 33°21' W 118°20'0 0.0
2018-Jul-14 09:30N 33°21' W 118°20'0 0.0
2018-Jul-14 08:54N 33°21' W 118°20'0 0.0
2018-Jul-14 08:30N 33°21' W 118°20'0 0.0
2018-Jul-14 07:50N 33°21' W 118°20'0 0.0
2018-Jul-14 07:26N 33°21' W 118°20'0 0.0
2018-Jul-14 07:00N 33°21' W 118°20'0 0.0
2018-Jul-14 06:30N 33°21' W 118°20'0 0.0
2018-Jul-14 06:00N 33°21' W 118°20'0 0.0
2018-Jul-14 05:28N 33°21' W 118°20'0 0.0
2018-Jul-14 05:00N 33°21' W 118°20'0 0.0
2018-Jul-14 04:25N 33°21' W 118°20'0 0.0
2018-Jul-14 04:00N 33°21' W 118°20'0 0.0
2018-Jul-14 03:30N 33°21' W 118°20'0 0.0
2018-Jul-14 03:00N 33°21' W 118°20'0 0.0
2018-Jul-14 02:30N 33°21' W 118°20'0 0.0
2018-Jul-14 01:59N 33°21' W 118°20'0 0.0
2018-Jul-14 01:29N 33°21' W 118°20'0 0.0
2018-Jul-14 00:59N 33°21' W 118°20'0 0.0
2018-Jul-14 00:27N 33°21' W 118°20'0 0.0
2018-Jul-14 00:00N 33°21' W 118°20'0 0.0
2018-Jul-13 23:29N 33°21' W 118°20'0 0.0
2018-Jul-13 22:59N 33°21' W 118°20'0 0.0
2018-Jul-13 22:29N 33°21' W 118°20'0 0.0
2018-Jul-13 21:58N 33°21' W 118°20'0 0.0
2018-Jul-13 21:30N 33°21' W 118°20'0 0.0
2018-Jul-13 20:58N 33°21' W 118°20'0 0.0
2018-Jul-13 20:30N 33°21' W 118°20'0 0.0
2018-Jul-13 20:00N 33°21' W 118°20'0 0.0
2018-Jul-13 18:33N 33°21' W 118°20'0 0.0
2018-Jul-13 18:30N 33°21' W 118°20'0 0.0
2018-Jul-13 16:49N 33°21' W 118°20'0 0.0
2018-Jul-13 16:26N 33°21' W 118°20'0 0.0
2018-Jul-13 15:59N 33°21' W 118°20'0 0.0
2018-Jul-13 15:30N 33°21' W 118°20'0 0.0
2018-Jul-13 14:59N 33°21' W 118°20'0 0.0
2018-Jul-13 14:24N 33°21' W 118°20'0 0.0
2018-Jul-13 13:30N 33°21' W 118°20'0 0.0
2018-Jul-13 13:00N 33°21' W 118°20'0 0.0
2018-Jul-13 12:30N 33°21' W 118°20'0 0.0
2018-Jul-13 12:00N 33°21' W 118°20'0 0.0
2018-Jul-13 11:30N 33°21' W 118°20'0 0.0
2018-Jul-13 11:00N 33°21' W 118°20'0 0.0
2018-Jul-13 10:30N 33°21' W 118°20'0 0.0
2018-Jul-13 10:00N 33°21' W 118°20'0 0.0
2018-Jul-13 09:30N 33°21' W 118°20'0 0.0
2018-Jul-13 09:00N 33°21' W 118°20'0 0.0
2018-Jul-13 08:29N 33°21' W 118°20'0 0.0
2018-Jul-13 07:56N 33°21' W 118°20'0 0.0
2018-Jul-13 07:30N 33°21' W 118°20'0 0.0
2018-Jul-13 07:00N 33°21' W 118°20'0 0.0
2018-Jul-13 06:30N 33°21' W 118°20'0 0.0
2018-Jul-13 05:57N 33°21' W 118°20'0 0.0
2018-Jul-13 05:30N 33°21' W 118°20'0 0.0
2018-Jul-13 04:58N 33°21' W 118°20'0 0.0
2018-Jul-13 04:22N 33°21' W 118°20'0 0.0
2018-Jul-13 04:00N 33°21' W 118°20'0 0.0
2018-Jul-13 03:30N 33°21' W 118°20'0 0.0
2018-Jul-13 02:58N 33°21' W 118°20'0 0.0
2018-Jul-13 02:30N 33°21' W 118°20'0 0.0
2018-Jul-13 02:00N 33°21' W 118°20'0 0.0
2018-Jul-13 01:25N 33°21' W 118°20'0 0.0
2018-Jul-13 00:59N 33°21' W 118°20'0 0.0
2018-Jul-13 00:29N 33°21' W 118°20'0 0.0
2018-Jul-13 00:00N 33°21' W 118°20'0 0.0
2018-Jul-12 23:30N 33°21' W 118°20'0 0.0
2018-Jul-12 23:00N 33°21' W 118°20'0 0.0
2018-Jul-12 22:30N 33°21' W 118°20'0 0.0
2018-Jul-12 22:00N 33°21' W 118°20'0 0.0
2018-Jul-12 21:30N 33°21' W 118°20'0 0.0
2018-Jul-12 21:00N 33°21' W 118°20'0 0.0
2018-Jul-12 20:30N 33°21' W 118°20'0 0.0
2018-Jul-12 20:00N 33°21' W 118°20'0 0.1
2018-Jul-12 19:29N 33°21' W 118°19'4 8.9
2018-Jul-12 19:00N 33°25' W 118°17'5 9.4
2018-Jul-12 18:30N 33°29' W 118°15'5 9.0
2018-Jul-12 18:00N 33°33' W 118°12'4 8.8
2018-Jul-12 17:30N 33°37' W 118°10'4 8.9
2018-Jul-12 17:00N 33°41' W 118°08'4 7.3
2018-Jul-12 16:30N 33°44' W 118°05'1 1.8
2018-Jul-12 15:59N 33°43' W 118°04'0 0.0
2018-Jul-12 15:30N 33°43' W 118°04'0 0.0
2018-Jul-12 15:00N 33°43' W 118°04'0 0.0
2018-Jul-12 14:30N 33°43' W 118°04'0 0.0
2018-Jul-12 14:00N 33°43' W 118°04'0 0.0
2018-Jul-12 13:29N 33°43' W 118°04'0 0.0
2018-Jul-12 13:00N 33°43' W 118°04'0 0.0
2018-Jul-12 12:30N 33°43' W 118°04'0 0.0
2018-Jul-12 12:00N 33°43' W 118°04'0 0.0
2018-Jul-12 11:30N 33°43' W 118°04'0 0.0
2018-Jul-12 11:00N 33°43' W 118°04'0 0.0
2018-Jul-12 10:30N 33°43' W 118°04'0 0.0
2018-Jul-12 10:00N 33°43' W 118°04'0 0.0
2018-Jul-12 09:30N 33°43' W 118°04'0 0.0
2018-Jul-12 09:00N 33°43' W 118°04'0 0.0
2018-Jul-12 08:30N 33°43' W 118°04'0 0.0
2018-Jul-12 08:00N 33°43' W 118°04'0 0.0
2018-Jul-12 07:30N 33°43' W 118°04'0 0.0
2018-Jul-12 07:00N 33°43' W 118°04'0 0.0
2018-Jul-12 06:30N 33°43' W 118°04'0 0.0
2018-Jul-12 06:00N 33°43' W 118°04'0 0.0
2018-Jul-12 05:30N 33°43' W 118°04'0 0.0
2018-Jul-12 05:00N 33°43' W 118°04'0 0.0
2018-Jul-12 04:30N 33°43' W 118°04'0 0.0
2018-Jul-12 04:00N 33°43' W 118°04'0 0.0
2018-Jul-12 03:30N 33°43' W 118°04'0 0.0
2018-Jul-12 02:58N 33°43' W 118°04'0 0.0
2018-Jul-12 02:30N 33°43' W 118°04'0 0.0
2018-Jul-12 02:00N 33°43' W 118°04'0 0.0
2018-Jul-12 01:30N 33°43' W 118°04'0 0.0
2018-Jul-12 01:00N 33°43' W 118°04'0 0.0
2018-Jul-12 00:30N 33°43' W 118°04'0 0.0
2018-Jul-12 00:00N 33°43' W 118°04'0 0.0
2018-Jul-11 23:30N 33°43' W 118°04'0 0.0
2018-Jul-11 23:00N 33°43' W 118°04'0 0.0
2018-Jul-11 22:30N 33°43' W 118°04'0 0.0
2018-Jul-11 22:00N 33°43' W 118°04'0 0.0
2018-Jul-11 21:30N 33°43' W 118°04'0 0.0
2018-Jul-11 21:00N 33°43' W 118°04'0 0.0
2018-Jul-11 20:30N 33°43' W 118°04'0 0.0
2018-Jul-11 20:00N 33°43' W 118°04'0 0.0
2018-Jul-11 19:30N 33°43' W 118°04'0 0.0
2018-Jul-11 19:00N 33°43' W 118°04'0 0.0
2018-Jul-11 18:30N 33°43' W 118°04'0 0.0
2018-Jul-11 18:00N 33°43' W 118°04'0 0.0
2018-Jul-11 17:30N 33°43' W 118°04'0 0.0
2018-Jul-11 17:00N 33°43' W 118°04'0 0.0
2018-Jul-11 16:30N 33°43' W 118°04'0 0.0
2018-Jul-11 16:00N 33°43' W 118°04'0 0.0
2018-Jul-11 15:30N 33°43' W 118°04'0 0.0
2018-Jul-11 15:00N 33°43' W 118°04'0 0.0
2018-Jul-11 14:30N 33°43' W 118°04'0 0.0
2018-Jul-11 14:00N 33°43' W 118°04'0 0.0
2018-Jul-11 13:29N 33°43' W 118°04'0 0.0
2018-Jul-11 13:00N 33°43' W 118°04'0 0.0
2018-Jul-11 12:29N 33°43' W 118°04'0 0.0
2018-Jul-11 12:00N 33°43' W 118°04'0 0.0
2018-Jul-11 11:30N 33°43' W 118°04'0 0.0
2018-Jul-11 11:00N 33°43' W 118°04'0 0.0
2018-Jul-11 10:30N 33°43' W 118°04'0 0.0
2018-Jul-11 10:00N 33°43' W 118°04'0 0.0
2018-Jul-11 09:30N 33°43' W 118°04'0 0.0
2018-Jul-11 09:00N 33°43' W 118°04'0 0.0
2018-Jul-11 08:30N 33°43' W 118°04'0 0.0
2018-Jul-11 07:59N 33°43' W 118°04'0 0.0
2018-Jul-11 07:30N 33°43' W 118°04'0 0.0
2018-Jul-11 07:00N 33°43' W 118°04'0 0.0
2018-Jul-11 06:30N 33°43' W 118°04'0 0.0
2018-Jul-11 06:00N 33°43' W 118°04'0 0.0
2018-Jul-11 05:30N 33°43' W 118°04'0 0.0
2018-Jul-11 05:00N 33°43' W 118°04'0 0.0
2018-Jul-11 04:30N 33°43' W 118°04'0 0.0
2018-Jul-11 04:00N 33°43' W 118°04'0 0.0
2018-Jul-11 03:30N 33°43' W 118°04'0 0.0
2018-Jul-11 03:00N 33°43' W 118°04'0 0.0
2018-Jul-11 02:30N 33°43' W 118°04'0 0.0
2018-Jul-11 02:00N 33°43' W 118°04'0 0.0
2018-Jul-11 01:30N 33°43' W 118°04'0 0.0
2018-Jul-11 01:00N 33°43' W 118°04'  

Dump ship's entire track history